Time;durP1;ratioP1;P1;durP2;ratioP2;P2;SDS_P1;SDS_P2;PMS_P1;PMS_P2;Temp;Humidity;BMP_temperature;BMP_pressure;BME280_temperature;BME280_humidity;BME280_pressure;Samples;Min_cycle;Max_cycle;Signal;HPM_P1;HPM_P2
2022/04/24 00:01:27;;;;;;;4.03;2.63;;;8.90;99.90;;;;;;5281871;23;20242;-83
2022/04/24 00:03:54;;;;;;;11.80;2.97;;;8.80;99.90;;;;;;4902088;29;20664;-82
2022/04/24 00:06:19;;;;;;;4.10;2.30;;;8.80;99.90;;;;;;4918652;29;20513;-83
2022/04/24 00:08:45;;;;;;;4.23;2.77;;;8.80;99.90;;;;;;4918870;29;20193;-82
2022/04/24 00:11:11;;;;;;;3.70;2.50;;;8.70;99.90;;;;;;4918953;29;20269;-84
2022/04/24 00:13:41;;;;;;;5.30;2.60;;;8.70;99.90;;;;;;4919068;29;20178;-86
2022/04/24 00:16:08;;;;;;;5.57;2.60;;;8.70;99.90;;;;;;4919160;29;20189;-86
2022/04/24 00:18:34;;;;;;;4.53;2.57;;;8.70;99.90;;;;;;4919152;29;20186;-86
2022/04/24 00:21:01;;;;;;;6.97;2.77;;;8.60;99.90;;;;;;4919039;29;20187;-87
2022/04/24 00:23:27;;;;;;;5.10;2.90;;;8.60;99.90;;;;;;4918602;29;20270;-82
2022/04/24 00:25:53;;;;;;;5.13;3.30;;;8.60;99.90;;;;;;4919701;29;20214;-81
2022/04/24 00:28:19;;;;;;;5.50;2.87;;;8.50;99.90;;;;;;4918545;29;20185;-84
2022/04/24 00:30:45;;;;;;;5.37;2.80;;;8.50;99.90;;;;;;4918247;29;20523;-85
2022/04/24 00:33:12;;;;;;;6.87;3.10;;;8.50;99.90;;;;;;4917364;29;20641;-85
2022/04/24 00:35:38;;;;;;;3.50;2.40;;;8.50;99.90;;;;;;4918316;29;20175;-82
2022/04/24 00:38:04;;;;;;;4.97;2.57;;;8.40;99.90;;;;;;4919538;29;20317;-82
2022/04/24 00:40:30;;;;;;;5.00;2.83;;;8.30;99.90;;;;;;4918900;29;20182;-81
2022/04/24 00:42:55;;;;;;;3.40;2.33;;;8.40;99.90;;;;;;4918247;29;20187;-82
2022/04/24 00:45:21;;;;;;;4.67;2.43;;;8.40;99.90;;;;;;4918213;29;20218;-80
2022/04/24 00:47:47;;;;;;;4.03;2.50;;;8.40;99.90;;;;;;4918077;29;20183;-82
2022/04/24 00:50:13;;;;;;;4.10;2.27;;;8.30;99.90;;;;;;4918175;29;20214;-83
2022/04/24 00:52:41;;;;;;;3.87;2.30;;;8.40;99.90;;;;;;4918243;29;20194;-81
2022/04/24 00:55:07;;;;;;;3.63;2.50;;;8.30;99.90;;;;;;4917732;29;20182;-83
2022/04/24 00:57:33;;;;;;;5.23;2.50;;;8.40;99.90;;;;;;4917937;29;20183;-83
2022/04/24 00:59:59;;;;;;;3.23;2.47;;;8.30;99.90;;;;;;4917975;29;20183;-83
2022/04/24 01:02:25;;;;;;;5.07;2.70;;;8.20;99.90;;;;;;4917714;29;20241;-82
2022/04/24 01:04:51;;;;;;;4.30;2.27;;;8.20;99.90;;;;;;4918011;29;20222;-83
2022/04/24 01:07:17;;;;;;;3.57;2.50;;;8.10;99.90;;;;;;4917881;29;20674;-84
2022/04/24 01:09:42;;;;;;;3.83;2.53;;;8.10;99.90;;;;;;4918599;29;20638;-83
2022/04/24 01:12:09;;;;;;;4.97;3.00;;;8.00;99.90;;;;;;4919131;29;20522;-86
2022/04/24 01:14:35;;;;;;;3.27;2.63;;;8.00;99.90;;;;;;4918910;29;20174;-84
2022/04/24 01:17:03;;;;;;;4.53;2.50;;;8.00;99.90;;;;;;4917699;29;20179;-81
2022/04/24 01:19:29;;;;;;;4.43;2.90;;;8.00;99.90;;;;;;4917630;29;20591;-83
2022/04/24 01:21:56;;;;;;;3.97;2.13;;;8.00;99.90;;;;;;4918860;29;20171;-85
2022/04/24 01:24:28;;;;;;;4.47;2.87;;;7.90;99.90;;;;;;4918620;29;20288;-82
2022/04/24 01:26:54;;;;;;;4.93;2.73;;;7.90;99.90;;;;;;4917646;29;20182;-82
2022/04/24 01:29:20;;;;;;;4.47;2.60;;;7.90;99.90;;;;;;4917704;29;20189;-82
2022/04/24 01:31:49;;;;;;;5.47;2.73;;;7.80;99.90;;;;;;4918697;29;20178;-83
2022/04/24 01:34:18;;;;;;;6.00;3.23;;;7.70;99.90;;;;;;4917742;29;20186;-84
2022/04/24 01:36:44;;;;;;;6.20;3.17;;;7.70;99.90;;;;;;4918758;29;20174;-82
2022/04/24 01:39:10;;;;;;;3.17;2.70;;;7.60;99.90;;;;;;4917015;29;20198;-82
2022/04/24 01:41:37;;;;;;;4.27;2.90;;;7.60;99.90;;;;;;4917262;29;20194;-82
2022/04/24 01:44:03;;;;;;;7.17;3.00;;;7.60;99.90;;;;;;4917099;29;20191;-83
2022/04/24 01:46:29;;;;;;;3.70;2.57;;;7.60;99.90;;;;;;4917615;29;20282;-82
2022/04/24 01:48:54;;;;;;;4.13;3.00;;;7.50;99.90;;;;;;4918563;29;20669;-82
2022/04/24 01:51:20;;;;;;;4.87;3.20;;;7.50;99.90;;;;;;4917162;29;20258;-83
2022/04/24 01:53:46;;;;;;;7.33;2.63;;;7.50;99.90;;;;;;4917082;29;20286;-81
2022/04/24 01:56:15;;;;;;;5.27;2.73;;;7.50;99.90;;;;;;4918565;29;20282;-83
2022/04/24 01:58:41;;;;;;;6.77;2.60;;;7.40;99.90;;;;;;4917055;29;20191;-83
2022/04/24 02:01:07;;;;;;;2.90;2.43;;;7.40;99.90;;;;;;4918262;29;20218;-82
2022/04/24 02:03:35;;;;;;;5.10;2.73;;;7.40;99.90;;;;;;4918413;29;20649;-81
2022/04/24 02:06:02;;;;;;;8.73;3.50;;;7.30;99.90;;;;;;4917109;29;20297;-82
2022/04/24 02:08:28;;;;;;;5.27;2.77;;;7.30;99.90;;;;;;4917974;29;20178;-81
2022/04/24 02:10:54;;;;;;;5.27;2.87;;;7.30;99.90;;;;;;4916999;29;20190;-81
2022/04/24 02:13:20;;;;;;;5.33;2.80;;;7.30;99.90;;;;;;4916873;29;20187;-81
2022/04/24 02:15:46;;;;;;;4.30;2.80;;;7.20;99.90;;;;;;4918333;29;20261;-81
2022/04/24 02:18:12;;;;;;;8.23;3.23;;;7.10;99.90;;;;;;4916996;29;20273;-81
2022/04/24 02:20:37;;;;;;;4.60;2.83;;;7.10;99.90;;;;;;4917021;29;20269;-82
2022/04/24 02:23:03;;;;;;;6.00;3.13;;;7.10;99.90;;;;;;4916961;29;20187;-81
2022/04/24 02:25:30;;;;;;;6.00;2.93;;;7.10;99.90;;;;;;4916478;29;20217;-81
2022/04/24 02:27:57;;;;;;;7.07;2.80;;;7.00;99.90;;;;;;4916577;29;20636;-83
2022/04/24 02:30:24;;;;;;;4.00;3.00;;;7.00;99.90;;;;;;4916864;29;20190;-81
2022/04/24 02:32:51;;;;;;;7.23;2.87;;;6.90;99.90;;;;;;4916711;29;20322;-84
2022/04/24 02:35:19;;;;;;;5.37;2.77;;;6.90;99.90;;;;;;4916781;29;20187;-79
2022/04/24 02:37:44;;;;;;;4.27;3.20;;;6.90;99.90;;;;;;4916652;29;20185;-81
2022/04/24 02:40:11;;;;;;;5.07;2.70;;;6.90;99.90;;;;;;4916469;29;20529;-85
2022/04/24 02:42:38;;;;;;;8.13;3.13;;;6.80;99.90;;;;;;4917983;29;20266;-83
2022/04/24 02:45:08;;;;;;;6.60;2.90;;;6.80;99.90;;;;;;4916834;29;20207;-81
2022/04/24 02:47:34;;;;;;;4.40;2.83;;;6.70;99.90;;;;;;4918111;29;20272;-81
2022/04/24 02:50:00;;;;;;;4.50;3.17;;;6.70;99.90;;;;;;4916899;29;20723;-81
2022/04/24 02:52:26;;;;;;;7.37;3.17;;;6.80;99.90;;;;;;4918007;29;20209;-82
2022/04/24 02:54:53;;;;;;;8.63;3.47;;;6.70;99.90;;;;;;4917185;29;20187;-82
2022/04/24 02:57:20;;;;;;;6.47;2.97;;;6.70;99.90;;;;;;4920296;29;20526;-82
2022/04/24 02:59:48;;;;;;;5.23;3.17;;;6.70;99.90;;;;;;4920300;29;20217;-81
2022/04/24 03:02:15;;;;;;;4.57;2.93;;;6.70;99.90;;;;;;4919878;29;20321;-82
2022/04/24 03:04:41;;;;;;;3.87;2.70;;;6.70;99.90;;;;;;4919982;29;20242;-82
2022/04/24 03:07:07;;;;;;;3.97;2.90;;;6.70;99.90;;;;;;4920043;29;20652;-81
2022/04/24 03:09:33;;;;;;;5.17;3.27;;;6.70;99.90;;;;;;4919284;29;20281;-81
2022/04/24 03:11:59;;;;;;;5.43;3.10;;;6.60;99.90;;;;;;4919735;29;20273;-83
2022/04/24 03:14:25;;;;;;;4.93;3.33;;;6.60;99.90;;;;;;4919868;29;20186;-83
2022/04/24 03:16:51;;;;;;;5.40;2.97;;;6.60;99.90;;;;;;4919803;29;20187;-82
2022/04/24 03:19:17;;;;;;;8.03;3.40;;;6.50;99.90;;;;;;4920959;29;20182;-83
2022/04/24 03:21:42;;;;;;;6.17;3.27;;;6.60;99.90;;;;;;4919753;29;20222;-81
2022/04/24 03:24:09;;;;;;;4.90;3.00;;;6.60;99.90;;;;;;4919227;29;20221;-85
2022/04/24 03:26:35;;;;;;;5.90;2.90;;;6.50;99.90;;;;;;4919897;29;20216;-84
2022/04/24 03:29:01;;;;;;;4.93;3.07;;;6.50;99.90;;;;;;4919606;29;20183;-80
2022/04/24 03:31:27;;;;;;;4.43;3.17;;;6.40;99.90;;;;;;4919525;29;20621;-81
2022/04/24 03:33:52;;;;;;;5.03;3.50;;;6.40;99.90;;;;;;4919494;29;20211;-81
2022/04/24 03:36:19;;;;;;;6.37;3.33;;;6.40;99.90;;;;;;4919385;29;20183;-82
2022/04/24 03:38:45;;;;;;;6.73;3.70;;;6.30;99.90;;;;;;4919112;29;20197;-84
2022/04/24 03:41:11;;;;;;;3.70;2.73;;;6.40;99.90;;;;;;4920594;29;20561;-82
2022/04/24 03:43:37;;;;;;;5.00;3.10;;;6.30;99.90;;;;;;4919348;29;20757;-82
2022/04/24 03:46:05;;;;;;;4.00;2.87;;;6.30;99.90;;;;;;4919475;29;20309;-81
2022/04/24 03:48:31;;;;;;;8.63;3.37;;;6.30;99.90;;;;;;4919274;29;20190;-82
2022/04/24 03:50:57;;;;;;;6.73;3.53;;;6.30;99.90;;;;;;4919248;29;20232;-81
2022/04/24 03:53:22;;;;;;;4.73;3.50;;;6.20;99.90;;;;;;4919050;29;20222;-80
2022/04/24 03:55:49;;;;;;;5.13;2.93;;;6.20;99.90;;;;;;4919070;29;20242;-82
2022/04/24 03:58:15;;;;;;;4.47;3.37;;;6.20;99.90;;;;;;4919517;29;20246;-84
2022/04/24 04:00:41;;;;;;;4.90;3.10;;;6.20;99.90;;;;;;4919410;29;20221;-83
2022/04/24 04:03:06;;;;;;;5.87;3.30;;;6.30;99.90;;;;;;4919214;29;20237;-82
2022/04/24 04:05:36;;;;;;;5.07;2.90;;;6.20;99.90;;;;;;4920248;29;20245;-81
2022/04/24 04:08:03;;;;;;;5.43;3.27;;;6.20;99.90;;;;;;4919536;29;20171;-80
2022/04/24 04:10:29;;;;;;;6.13;3.10;;;6.20;99.90;;;;;;4919862;29;20175;-81
2022/04/24 04:12:55;;;;;;;7.97;3.70;;;6.20;99.90;;;;;;4919995;29;20252;-80
2022/04/24 04:15:22;;;;;;;7.17;3.43;;;6.20;99.90;;;;;;4918760;29;20191;-85
2022/04/24 04:17:48;;;;;;;4.53;3.07;;;6.10;99.90;;;;;;4919059;29;20174;-85
2022/04/24 04:20:14;;;;;;;6.13;3.17;;;6.20;99.90;;;;;;4919118;29;20183;-84
2022/04/24 04:22:51;;;;;;;5.03;3.23;;;6.20;99.90;;;;;;4919039;29;20499;-84
2022/04/24 04:25:19;;;;;;;5.20;3.63;;;6.20;99.90;;;;;;4918611;29;20229;-84
2022/04/24 04:27:45;;;;;;;4.33;2.67;;;6.20;99.90;;;;;;4918899;29;20182;-83
2022/04/24 04:30:11;;;;;;;4.70;3.03;;;6.20;99.90;;;;;;4920007;29;20190;-87
2022/04/24 04:32:37;;;;;;;7.57;3.30;;;6.20;99.90;;;;;;4918714;29;20190;-84
2022/04/24 04:35:11;;;;;;;3.97;2.70;;;6.20;99.90;;;;;;4920016;29;20182;-82
2022/04/24 04:37:37;;;;;;;6.17;2.67;;;6.20;99.90;;;;;;4919734;29;20171;-83
2022/04/24 04:40:07;;;;;;;5.00;2.90;;;6.20;99.90;;;;;;4917809;29;20280;-80
2022/04/24 04:42:33;;;;;;;4.53;2.90;;;6.30;99.90;;;;;;4918444;29;20214;-82
2022/04/24 04:45:00;;;;;;;4.83;2.80;;;6.30;99.90;;;;;;4918367;29;20214;-81
2022/04/24 04:47:29;;;;;;;4.20;2.60;;;6.30;99.90;;;;;;4918267;29;20217;-85
2022/04/24 04:49:58;;;;;;;5.40;3.13;;;6.30;99.90;;;;;;4919488;29;20183;-84
2022/04/24 04:52:23;;;;;;;9.20;3.47;;;6.40;99.90;;;;;;4918151;29;20573;-85
2022/04/24 04:54:50;;;;;;;4.60;2.80;;;6.40;99.90;;;;;;4917818;29;20186;-83
2022/04/24 04:57:16;;;;;;;6.20;3.20;;;6.40;99.90;;;;;;4918230;29;20242;-83
2022/04/24 04:59:42;;;;;;;5.07;2.83;;;6.40;99.90;;;;;;4918041;29;20513;-81
2022/04/24 05:02:08;;;;;;;4.73;2.70;;;6.50;99.90;;;;;;4917763;29;20258;-82
2022/04/24 05:04:33;;;;;;;5.70;3.23;;;6.60;99.90;;;;;;4917725;29;20199;-82
2022/04/24 05:07:00;;;;;;;4.80;2.87;;;6.60;99.90;;;;;;4919179;29;20181;-83
2022/04/24 05:09:26;;;;;;;4.50;2.67;;;6.70;99.90;;;;;;4917619;29;20190;-79
2022/04/24 05:11:53;;;;;;;3.97;2.93;;;6.70;99.90;;;;;;4917754;29;20242;-81
2022/04/24 05:14:19;;;;;;;5.23;3.10;;;6.80;99.90;;;;;;4917546;29;20175;-81
2022/04/24 05:16:45;;;;;;;3.97;2.60;;;6.80;99.90;;;;;;4918882;29;20252;-81
2022/04/24 05:19:10;;;;;;;6.03;3.10;;;6.90;99.90;;;;;;4918472;29;20257;-83
2022/04/24 05:21:36;;;;;;;5.37;3.03;;;7.00;99.90;;;;;;4918810;29;20183;-81
2022/04/24 05:24:02;;;;;;;5.47;2.50;;;7.10;99.90;;;;;;4918559;29;20246;-82
2022/04/24 05:26:29;;;;;;;6.27;2.67;;;7.10;99.90;;;;;;4918829;29;20190;-82
2022/04/24 05:28:57;;;;;;;6.43;3.13;;;7.20;99.90;;;;;;4917607;29;20194;-83
2022/04/24 05:31:22;;;;;;;4.77;2.60;;;7.30;99.90;;;;;;4918626;29;20186;-80
2022/04/24 05:33:48;;;;;;;4.97;3.00;;;7.40;99.90;;;;;;4918692;29;20618;-82
2022/04/24 05:36:16;;;;;;;7.30;2.63;;;7.40;99.90;;;;;;4917447;29;20183;-81
2022/04/24 05:38:41;;;;;;;4.70;2.70;;;7.50;99.90;;;;;;4917363;29;20194;-80
2022/04/24 05:41:07;;;;;;;4.90;2.53;;;7.50;99.90;;;;;;4919207;29;20301;-83
2022/04/24 05:43:33;;;;;;;3.97;2.17;;;7.60;99.90;;;;;;4917128;29;20622;-82
2022/04/24 05:45:58;;;;;;;8.00;2.53;;;7.60;99.90;;;;;;4917329;29;20214;-81
2022/04/24 05:48:24;;;;;;;4.93;2.67;;;7.70;99.90;;;;;;4917191;29;20177;-82
2022/04/24 05:50:50;;;;;;;3.60;2.57;;;7.80;99.90;;;;;;4917388;29;20182;-83
2022/04/24 05:53:15;;;;;;;4.07;2.40;;;7.90;99.90;;;;;;4918431;29;20274;-80
2022/04/24 05:55:42;;;;;;;5.57;2.17;;;7.90;99.90;;;;;;4917188;29;20195;-82
2022/04/24 05:58:08;;;;;;;5.20;2.67;;;8.00;99.90;;;;;;4917112;29;20213;-82
2022/04/24 06:00:36;;;;;;;3.83;2.20;;;8.10;99.90;;;;;;4917410;29;20182;-83
2022/04/24 06:03:02;;;;;;;5.30;2.53;;;8.20;99.90;;;;;;4917090;29;20310;-82
2022/04/24 06:05:28;;;;;;;7.00;2.67;;;8.30;99.90;;;;;;4916998;29;20222;-83
2022/04/24 06:07:55;;;;;;;7.70;2.80;;;8.40;99.90;;;;;;4917173;29;20265;-82
2022/04/24 06:10:21;;;;;;;4.10;2.37;;;8.50;99.90;;;;;;4916773;29;20190;-82
2022/04/24 06:12:46;;;;;;;7.97;2.97;;;8.60;99.90;;;;;;4916886;29;20326;-80
2022/04/24 06:15:15;;;;;;;4.00;2.40;;;8.60;99.90;;;;;;4918414;29;20214;-81
2022/04/24 06:17:43;;;;;;;3.93;2.10;;;8.60;99.90;;;;;;4916999;29;20183;-82
2022/04/24 06:20:10;;;;;;;3.80;2.50;;;8.70;99.90;;;;;;4917076;29;20201;-83
2022/04/24 06:22:56;;;;;;;5.33;2.33;;;8.80;99.90;;;;;;4916942;29;20509;-83
2022/04/24 06:25:24;;;;;;;5.27;2.30;;;9.00;99.90;;;;;;4916746;29;20559;-82
2022/04/24 06:27:53;;;;;;;4.00;2.40;;;9.10;99.90;;;;;;4917016;29;20182;-82
2022/04/24 06:30:21;;;;;;;4.83;2.33;;;9.20;99.90;;;;;;4918706;29;20584;-86
2022/04/24 06:32:47;;;;;;;7.73;2.43;;;9.30;99.90;;;;;;4920573;29;20183;-81
2022/04/24 06:35:15;;;;;;;6.00;3.07;;;9.30;99.90;;;;;;4920755;29;20190;-84
2022/04/24 06:37:48;;;;;;;5.87;2.47;;;9.20;99.90;;;;;;4921771;29;20614;-85
2022/04/24 06:40:15;;;;;;;5.50;2.57;;;9.20;99.90;;;;;;4920434;29;20178;-83
2022/04/24 06:42:52;;;;;;;4.37;2.77;;;9.30;99.90;;;;;;4920594;29;20311;-82
2022/04/24 06:45:33;;;;;;;5.27;2.80;;;9.40;99.90;;;;;;4920407;29;20265;-82
2022/04/24 06:48:09;;;;;;;5.83;2.60;;;9.40;99.90;;;;;;4921372;29;20175;-83
2022/04/24 06:50:38;;;;;;;5.50;2.90;;;9.30;99.90;;;;;;4920448;29;20186;-81
2022/04/24 06:53:11;;;;;;;4.23;2.50;;;9.30;99.90;;;;;;4920135;29;20618;-82
2022/04/24 06:55:40;;;;;;;5.03;2.50;;;9.30;99.90;;;;;;4919833;29;20186;-83
2022/04/24 06:58:10;;;;;;;5.67;2.60;;;9.40;99.90;;;;;;4920186;29;20285;-83
2022/04/24 07:00:37;;;;;;;4.90;2.73;;;9.50;99.90;;;;;;4920171;29;20178;-85
2022/04/24 07:03:10;;;;;;;5.07;2.77;;;9.50;99.90;;;;;;4920079;29;20628;-82
2022/04/24 07:05:36;;;;;;;7.23;2.50;;;9.40;99.90;;;;;;4919966;29;20666;-84
2022/04/24 07:08:03;;;;;;;5.07;2.53;;;9.50;99.90;;;;;;4917718;29;20234;-84
2022/04/24 07:10:29;;;;;;;7.73;3.30;;;9.40;99.90;;;;;;4900807;29;20179;-83
2022/04/24 07:12:55;;;;;;;6.10;3.03;;;9.40;99.90;;;;;;4902180;29;20219;-84
2022/04/24 07:15:23;;;;;;;5.03;2.63;;;9.50;99.90;;;;;;4901021;29;20194;-83
2022/04/24 07:17:51;;;;;;;5.33;2.83;;;9.50;99.90;;;;;;4902038;29;20654;-82
2022/04/24 07:20:19;;;;;;;8.87;3.10;;;9.50;99.90;;;;;;4900995;29;20183;-82
2022/04/24 07:22:50;;;;;;;4.70;2.63;;;9.70;99.90;;;;;;4900635;29;20300;-81
2022/04/24 07:25:18;;;;;;;5.37;2.67;;;9.90;99.90;;;;;;4900534;29;20211;-82
2022/04/24 07:27:44;;;;;;;5.03;3.03;;;10.20;99.90;;;;;;4900886;29;20187;-80
2022/04/24 07:30:14;;;;;;;6.57;3.30;;;10.40;99.90;;;;;;4902164;29;20255;-83
2022/04/24 07:32:54;;;;;;;5.93;3.33;;;10.40;99.90;;;;;;4902037;29;20175;-83
2022/04/24 07:35:27;;;;;;;6.30;2.80;;;10.30;99.90;;;;;;4902017;29;20179;-81
2022/04/24 07:37:54;;;;;;;4.97;3.40;;;10.10;99.90;;;;;;4901478;29;20337;-82
2022/04/24 07:40:26;;;;;;;4.90;3.27;;;10.10;99.90;;;;;;4919065;29;20190;-82
2022/04/24 07:43:03;;;;;;;4.97;3.50;;;10.10;99.90;;;;;;4919379;29;20269;-81
2022/04/24 07:45:30;;;;;;;6.00;3.40;;;10.20;99.90;;;;;;4919212;29;20229;-82
2022/04/24 07:47:57;;;;;;;6.73;3.07;;;10.30;99.90;;;;;;4920342;29;20179;-81
2022/04/24 07:50:25;;;;;;;10.20;3.60;;;10.40;99.90;;;;;;4920345;29;20234;-82
2022/04/24 07:52:52;;;;;;;14.33;3.67;;;10.40;99.90;;;;;;4920235;29;20175;-82
2022/04/24 07:55:22;;;;;;;8.13;3.37;;;10.50;99.90;;;;;;4919117;29;20193;-83
2022/04/24 07:57:49;;;;;;;6.53;3.90;;;10.30;99.90;;;;;;4918813;29;20209;-81
2022/04/24 08:00:17;;;;;;;8.23;3.60;;;10.30;99.90;;;;;;4920332;29;20341;-84
2022/04/24 08:03:01;;;;;;;7.90;3.57;;;10.20;99.90;;;;;;4918803;29;20716;-82
2022/04/24 08:05:34;;;;;;;5.43;3.17;;;10.30;99.90;;;;;;4918737;29;20225;-81
2022/04/24 08:08:02;;;;;;;4.60;3.23;;;10.40;99.90;;;;;;4919011;29;20590;-81
2022/04/24 08:10:35;;;;;;;6.30;3.40;;;10.40;99.90;;;;;;4918686;29;20178;-81
2022/04/24 08:13:04;;;;;;;5.93;3.63;;;10.50;99.90;;;;;;4919981;29;20266;-83
2022/04/24 08:15:30;;;;;;;6.60;3.80;;;10.70;99.90;;;;;;4918852;29;20235;-81
2022/04/24 08:17:57;;;;;;;5.87;3.37;;;11.10;99.90;;;;;;4918719;29;20194;-81
2022/04/24 08:20:23;;;;;;;6.47;3.87;;;11.40;99.90;;;;;;4918539;29;20254;-81
2022/04/24 08:22:51;;;;;;;6.13;3.83;;;11.50;99.90;;;;;;4918459;29;20189;-84
2022/04/24 08:25:20;;;;;;;9.07;3.53;;;11.50;99.90;;;;;;4917246;29;20536;-81
2022/04/24 08:27:47;;;;;;;6.82;3.70;;;11.40;99.90;;;;;;4918571;29;20245;-82
2022/04/24 08:30:14;;;;;;;6.32;3.95;;;11.40;99.90;;;;;;4918744;29;20186;-82
2022/04/24 08:32:41;;;;;;;6.63;3.78;;;11.50;99.90;;;;;;4918919;29;20533;-85
2022/04/24 08:35:10;;;;;;;5.40;3.88;;;11.80;99.90;;;;;;4918874;29;20185;-83
2022/04/24 08:37:37;;;;;;;5.90;4.13;;;11.90;99.90;;;;;;4918768;29;20197;-82
2022/04/24 08:40:07;;;;;;;10.30;4.00;;;11.90;99.90;;;;;;4918539;29;20323;-85
2022/04/24 08:42:33;;;;;;;5.53;3.80;;;11.80;99.90;;;;;;4918663;29;20525;-85
2022/04/24 08:44:59;;;;;;;10.18;4.35;;;11.70;99.90;;;;;;4919814;29;20199;-85
2022/04/24 08:47:35;;;;;;;7.03;4.05;;;11.70;99.90;;;;;;4918687;29;20186;-84
2022/04/24 08:50:02;;;;;;;8.95;4.30;;;11.60;99.90;;;;;;4918669;29;20186;-85
2022/04/24 08:52:29;;;;;;;6.90;4.32;;;11.70;99.90;;;;;;4917952;29;20206;-82
2022/04/24 08:54:56;;;;;;;8.87;4.50;;;11.80;99.90;;;;;;4919256;29;20182;-84
2022/04/24 08:57:38;;;;;;;7.20;4.70;;;11.90;99.90;;;;;;4918554;29;20685;-86
2022/04/24 09:00:07;;;;;;;9.02;4.38;;;12.00;99.90;;;;;;4918660;29;20182;-82
2022/04/24 09:02:33;;;;;;;7.40;4.70;;;12.30;99.90;;;;;;4918084;29;20537;-85
2022/04/24 09:04:59;;;;;;;9.10;4.63;;;12.40;99.90;;;;;;4918770;29;20266;-83
2022/04/24 09:07:31;;;;;;;9.77;4.70;;;12.60;99.90;;;;;;4918904;29;20553;-83
2022/04/24 09:09:58;;;;;;;5.82;4.20;;;12.70;99.90;;;;;;4916595;29;20195;-81
2022/04/24 09:12:24;;;;;;;7.90;5.15;;;12.80;99.90;;;;;;4917644;29;20207;-84
2022/04/24 09:14:55;;;;;;;6.40;4.72;;;12.80;99.90;;;;;;4917904;29;20210;-83
2022/04/24 09:17:28;;;;;;;8.10;5.40;;;12.60;99.90;;;;;;4918998;29;20223;-83
2022/04/24 09:19:56;;;;;;;7.32;4.88;;;12.60;99.90;;;;;;4917768;29;20167;-83
2022/04/24 09:22:22;;;;;;;10.35;5.18;;;12.80;99.90;;;;;;4917705;29;20195;-83
2022/04/24 09:24:55;;;;;;;8.52;5.45;;;12.90;99.90;;;;;;4918627;29;20642;-82
2022/04/24 09:27:25;;;;;;;9.02;5.13;;;12.90;99.90;;;;;;4917607;29;20191;-82
2022/04/24 09:30:04;;;;;;;9.43;5.70;;;13.20;99.90;;;;;;4918837;29;20520;-82
2022/04/24 09:32:31;;;;;;;7.85;4.90;;;13.20;99.90;;;;;;4917521;29;20182;-83
2022/04/24 09:34:58;;;;;;;8.63;5.15;;;13.30;99.90;;;;;;4918787;29;20644;-84
2022/04/24 09:37:24;;;;;;;10.85;5.63;;;13.50;99.90;;;;;;4917527;29;20524;-82
2022/04/24 09:39:52;;;;;;;8.02;5.40;;;13.50;99.90;;;;;;4917183;29;20186;-83
2022/04/24 09:42:20;;;;;;;10.25;5.53;;;13.50;99.90;;;;;;4917548;29;20274;-81
2022/04/24 09:44:50;;;;;;;7.85;5.13;;;13.70;99.90;;;;;;4918557;29;20199;-82
2022/04/24 09:47:24;;;;;;;7.82;5.18;;;14.00;99.90;;;;;;4918516;29;20618;-82
2022/04/24 09:49:51;;;;;;;8.95;5.10;;;14.10;99.90;;;;;;4917321;29;20189;-83
2022/04/24 09:52:25;;;;;;;6.85;4.95;;;14.00;99.90;;;;;;4918476;29;20182;-82
2022/04/24 09:54:55;;;;;;;8.73;5.55;;;14.00;99.90;;;;;;4918240;29;20171;-84
2022/04/24 09:57:27;;;;;;;10.90;5.70;;;14.00;99.90;;;;;;4918743;29;20171;-83
2022/04/24 09:59:53;;;;;;;10.38;5.70;;;13.80;99.90;;;;;;4917153;29;20190;-81
2022/04/24 10:02:20;;;;;;;10.43;5.93;;;13.90;99.90;;;;;;4918130;29;20226;-83
2022/04/24 10:04:46;;;;;;;7.75;5.40;;;14.20;99.90;;;;;;4920596;29;20523;-83
2022/04/24 10:07:14;;;;;;;10.25;6.28;;;14.10;99.90;;;;;;4920895;29;20193;-82
2022/04/24 10:09:45;;;;;;;9.90;5.88;;;14.30;99.90;;;;;;4920605;29;20190;-83
2022/04/24 10:12:15;;;;;;;9.45;5.60;;;14.20;99.90;;;;;;4920889;29;20578;-82
2022/04/24 10:15:05;;;;;;;7.45;5.53;;;14.30;99.90;;;;;;4920956;29;20201;-83
2022/04/24 10:17:46;;;;;;;6.90;5.50;;;14.40;99.90;;;;;;4920764;29;20185;-83
2022/04/24 10:20:31;;;;;;;11.18;5.90;;;14.40;99.90;;;;;;4922107;29;20171;-83
2022/04/24 10:22:58;;;;;;;8.02;5.63;;;14.30;99.90;;;;;;4920546;29;20640;-82
2022/04/24 10:25:37;;;;;;;7.80;5.80;;;14.50;99.90;;;;;;4921617;29;20249;-83
2022/04/24 10:28:18;;;;;;;10.13;5.68;;;14.60;99.90;;;;;;4920613;29;20167;-83
2022/04/24 10:31:04;;;;;;;10.32;6.40;;;14.40;99.90;;;;;;4920755;29;20179;-85
2022/04/24 10:33:32;;;;;;;9.25;5.97;;;14.60;99.90;;;;;;4919999;29;20258;-84
2022/04/24 10:36:14;;;;;;;11.75;5.97;;;14.50;99.90;;;;;;4920452;29;20187;-83
2022/04/24 10:38:50;;;;;;;11.95;6.22;;;14.10;99.90;;;;;;4921790;29;20174;-81
2022/04/24 10:41:18;;;;;;;9.73;5.50;;;14.30;99.90;;;;;;4921274;29;20198;-81
2022/04/24 10:43:48;;;;;;;9.18;6.20;;;14.40;99.90;;;;;;4920432;29;20182;-82
2022/04/24 10:46:18;;;;;;;8.18;5.72;;;14.40;99.90;;;;;;4920193;29;20677;-83
2022/04/24 10:48:46;;;;;;;10.10;6.18;;;14.60;99.90;;;;;;4921556;29;20555;-84
2022/04/24 10:51:12;;;;;;;11.55;6.35;;;14.70;99.90;;;;;;4920406;29;20220;-87
2022/04/24 10:53:59;;;;;;;7.13;5.85;;;14.70;99.90;;;;;;4921371;29;20497;-84
2022/04/24 10:56:29;;;;;;;8.80;5.93;;;14.80;99.90;;;;;;4920104;29;20253;-84
2022/04/24 10:59:17;;;;;;;9.68;6.25;;;14.90;99.90;;;;;;4921264;29;20155;-83
2022/04/24 11:01:51;;;;;;;10.38;5.97;;;14.60;99.90;;;;;;4919608;29;20567;-85
2022/04/24 11:04:18;;;;;;;10.05;5.63;;;14.60;99.90;;;;;;4921095;29;20175;-85
2022/04/24 11:07:04;;;;;;;8.77;5.80;;;14.60;99.90;;;;;;4919844;29;20190;-82
2022/04/24 11:09:35;;;;;;;8.43;5.93;;;14.50;99.90;;;;;;4920894;29;20187;-82
2022/04/24 11:12:11;;;;;;;10.82;6.07;;;14.60;99.90;;;;;;4921065;29;20163;-85
2022/04/24 11:14:37;;;;;;;9.95;6.15;;;14.40;99.90;;;;;;4921082;29;20194;-83
2022/04/24 11:17:05;;;;;;;9.20;6.47;;;14.40;99.90;;;;;;4919418;29;20178;-82
2022/04/24 11:19:36;;;;;;;7.97;6.00;;;14.50;99.90;;;;;;4920788;29;20229;-83
2022/04/24 11:22:12;;;;;;;9.52;6.43;;;14.50;99.90;;;;;;4919446;29;20186;-84
2022/04/24 11:24:40;;;;;;;10.25;6.03;;;14.50;99.90;;;;;;4920936;29;20303;-84
2022/04/24 11:27:11;;;;;;;8.32;6.25;;;14.60;99.90;;;;;;4921145;29;20183;-83
2022/04/24 11:29:38;;;;;;;8.45;6.40;;;14.60;99.90;;;;;;4920718;29;20174;-81
2022/04/24 11:32:09;;;;;;;8.38;6.25;;;14.30;99.90;;;;;;4920119;29;20210;-84
2022/04/24 11:34:37;;;;;;;7.90;5.95;;;14.30;99.90;;;;;;4920783;29;20175;-84
2022/04/24 11:37:04;;;;;;;8.30;6.15;;;14.40;99.90;;;;;;4919668;29;20183;-83
2022/04/24 11:39:30;;;;;;;9.43;6.50;;;14.50;99.90;;;;;;4916126;29;20183;-82
2022/04/24 11:41:58;;;;;;;9.68;5.82;;;14.60;99.90;;;;;;4918093;29;20238;-85
2022/04/24 11:50:15;;;;;;;11.93;6.45;;;15.30;98.90;;;;;;4912554;29;20225;-84
2022/04/24 11:52:46;;;;;;;10.93;6.18;;;15.10;99.50;;;;;;4900424;29;20187;-83
2022/04/24 11:55:17;;;;;;;9.20;5.75;;;15.40;99.80;;;;;;4916024;29;20230;-84
2022/04/24 11:57:43;;;;;;;8.05;5.95;;;15.80;99.60;;;;;;4901341;29;20780;-86
2022/04/24 12:00:18;;;;;;;8.25;6.05;;;15.50;98.50;;;;;;4901597;29;20179;-84
2022/04/24 12:02:45;;;;;;;7.75;5.75;;;15.60;99.70;;;;;;4900002;29;20565;-85
2022/04/24 12:05:11;;;;;;;9.30;5.72;;;15.80;98.20;;;;;;4900146;29;20241;-84
2022/04/24 12:07:37;;;;;;;9.68;6.45;;;16.00;98.40;;;;;;4915737;29;20190;-83
2022/04/24 12:10:05;;;;;;;8.60;5.90;;;16.00;97.40;;;;;;4910823;29;20182;-81
2022/04/24 12:12:31;;;;;;;10.27;5.97;;;16.10;97.50;;;;;;4918997;29;20611;-85
2022/04/24 12:14:57;;;;;;;6.88;5.20;;;16.00;98.00;;;;;;4920482;29;20207;-83
2022/04/24 12:17:24;;;;;;;7.70;5.50;;;16.10;97.60;;;;;;4918931;29;20187;-85
2022/04/24 12:19:54;;;;;;;10.02;5.47;;;16.10;97.60;;;;;;4919888;29;20185;-86
2022/04/24 12:22:29;;;;;;;8.85;5.32;;;16.30;97.10;;;;;;4920158;29;20175;-85
2022/04/24 12:25:09;;;;;;;8.15;5.43;;;16.60;96.70;;;;;;4919803;29;20228;-83
2022/04/24 12:27:36;;;;;;;8.02;5.75;;;16.70;96.70;;;;;;4918054;29;20262;-87
2022/04/24 12:30:04;;;;;;;9.40;5.43;;;16.60;96.00;;;;;;4918812;29;20182;-85
2022/04/24 12:32:30;;;;;;;9.07;5.72;;;16.60;95.50;;;;;;4918523;29;20179;-86
2022/04/24 12:34:56;;;;;;;8.32;5.70;;;16.70;95.40;;;;;;4919919;29;20234;-83
2022/04/24 12:37:30;;;;;;;8.18;4.90;;;16.50;96.50;;;;;;4918603;29;20179;-85
2022/04/24 12:39:57;;;;;;;8.77;5.30;;;16.10;96.00;;;;;;4919284;29;20182;-83
2022/04/24 12:42:24;;;;;;;7.88;5.85;;;15.90;96.10;;;;;;4918398;29;20185;-84
2022/04/24 12:44:50;;;;;;;11.55;5.57;;;15.60;96.60;;;;;;4919662;29;20302;-84
2022/04/24 12:47:16;;;;;;;7.35;4.85;;;15.50;96.90;;;;;;4918847;29;20554;-88
2022/04/24 12:49:44;;;;;;;5.97;5.10;;;15.40;96.90;;;;;;4918627;29;20183;-85
2022/04/24 12:52:11;;;;;;;7.93;4.85;;;15.50;97.20;;;;;;4918367;29;20174;-84
2022/04/24 12:54:37;;;;;;;21.08;5.70;;;15.40;97.80;;;;;;4917969;29;20350;-82
2022/04/24 12:57:07;;;;;;;7.28;4.93;;;15.30;97.80;;;;;;4919393;29;20654;-87
2022/04/24 12:59:35;;;;;;;7.15;4.95;;;15.20;97.90;;;;;;4899603;29;20215;-81
2022/04/24 13:02:05;;;;;;;8.30;4.72;;;15.00;98.40;;;;;;4905976;29;20241;-86
2022/04/24 13:04:33;;;;;;;7.95;4.93;;;14.90;98.50;;;;;;4905495;29;20539;-83